METAR AND TAF INFORMATION
METAR FOR LIBP
ADDS - METARS form results

(1053 UTC 23 February 2020)
Data provider http://aviationweather.gov/metar/data/
 
Forecast for: LIBP (PESCARA , IT)
Text: TAF LIBP 230500Z 2306/2406 VRB05KT CAVOK
Forecast period: 0600 UTC 23 February 2020 to 0600 UTC 24 February 2020
Forecast type: FROM: standard forecast or significant change
Winds: variable direction winds at 6 MPH (5 knots; 2.6 m/s)
Visibility: 6 or more miles 10+ km)
Ceiling: unknown
Clouds: missing
Weather: NSW  (no significant weather)

 AIRPORT MAP

 RUNWAY INFORMATION
Runway 04 Runway length 7933 ft Runway width 148 ft
Runway elevation 46 ft Runway displaced threshold 344 ft Runway heading 38
Runway 22 Runway length 7933 ft Runway width 148 ft
Runway elevation 27 ft Runway displaced threshold 617 ft Runway heading 218

 AIRPORT FREQUENCIES
Type APP Name APP Frequency 120.05 MHZ
Type TWR Name TWR Frequency 118.45 MHZ

 AIRPORT NEAR NAVIGATION AIDS
Type VOR-DME Name Pescara Frequency 115900 KHZ



Powered by Heron Airways VA. All Rights Reserved © 2009 [v2.6.2]